John_paul K — PBHY — position and weather

sailwx.info

Track history (hours):
 
Tides and Currents Weather Stations Pressure Air Temp Water Temp Dewpoint Dewpoint Depression Visibility Wind Speed Wind Dir Waves Ship Positions

John_paul K

Last reported at 2015-Jul-29 23:31 UTC. Time now 2015-Jul-30 02:06 UTC.
Position N 35°54' W 005°19'.

Length 90 m; draft 5.8 m.

Type: Cargo ship. MMSI: 245181000.

Date/timePositionNaut miles runAvg speedWind from/ knotsBaromVisibWave heightAir tempDewpointWater temp
2015-Jul-29 23:31N 35°54' W 005°19'0 0.1
2015-Jul-29 22:31N 35°54' W 005°19'0 0.0
2015-Jul-29 21:31N 35°54' W 005°19'1 0.9
2015-Jul-29 20:33N 35°55' W 005°19'149 9.1
2015-Jul-29 04:08N 36°22' W 008°21'6 9.9
2015-Jul-29 03:33N 36°24' W 008°27'24 9.6
2015-Jul-29 01:05N 36°30' W 008°56'17 8.8
2015-Jul-28 23:10N 36°35' W 009°16'6 9.0
2015-Jul-28 22:33N 36°38' W 009°21'9 8.7
2015-Jul-28 21:33N 36°45' W 009°29'26 8.5
2015-Jul-28 18:32N 37°09' W 009°38'9 9.0
2015-Jul-28 17:33N 37°18' W 009°41'29 8.9
2015-Jul-28 14:21N 37°46' W 009°49'810.3
2015-Jul-28 13:33N 37°54' W 009°52'13 9.7
2015-Jul-28 12:10N 38°07' W 009°56'6 9.7
2015-Jul-28 11:33N 38°13' W 009°58'9 9.4
2015-Jul-28 10:33N 38°22' W 009°60'9 9.2
2015-Jul-28 09:33N 38°31' W 010°02'9 9.2
2015-Jul-28 08:33N 38°40' W 010°05'9 9.0
2015-Jul-28 07:32N 38°49' W 010°05'9 9.5
2015-Jul-28 06:33N 38°58' W 010°05'10 9.9
2015-Jul-28 05:33N 39°08' W 010°05'9 9.0
2015-Jul-28 04:33N 39°17' W 010°05'10 9.0
2015-Jul-28 03:30N 39°27' W 010°05'9 9.0
2015-Jul-28 02:32N 39°35' W 010°05'28 9.2
2015-Jul-27 23:32N 40°03' W 010°05'9 8.9
2015-Jul-27 22:33N 40°12' W 010°05'9 9.0
2015-Jul-27 21:33N 40°21' W 010°05'10 9.2
2015-Jul-27 20:28N 40°31' W 010°05'9 9.5
2015-Jul-27 19:33N 40°40' W 010°05'  
2015-Jul-24 18:33N 50°22' W 004°08'1 0.6
2015-Jul-24 17:31N 50°22' W 004°08'0 0.0
2015-Jul-24 16:31N 50°22' W 004°08'0 0.0
2015-Jul-24 15:31N 50°22' W 004°08'0 0.0
2015-Jul-24 14:31N 50°22' W 004°08'0 0.0
2015-Jul-24 13:31N 50°22' W 004°08'0 0.0
2015-Jul-24 12:31N 50°22' W 004°08'0 0.0
2015-Jul-24 11:31N 50°22' W 004°08'0 0.0
2015-Jul-24 10:31N 50°22' W 004°08'0 0.0
2015-Jul-24 09:31N 50°22' W 004°08'0 0.0
2015-Jul-24 08:31N 50°22' W 004°08'0 0.0
2015-Jul-24 07:31N 50°22' W 004°08'0 0.0
2015-Jul-24 06:31N 50°22' W 004°08'0 0.0
2015-Jul-24 05:34N 50°22' W 004°08'0 0.0
2015-Jul-24 04:33N 50°22' W 004°08'0 0.0
2015-Jul-24 03:33N 50°22' W 004°08'0 0.0
2015-Jul-24 02:33N 50°22' W 004°08'0 0.0
2015-Jul-24 01:33N 50°22' W 004°08'0 0.0
2015-Jul-24 00:33N 50°22' W 004°08'0 0.0
2015-Jul-23 23:33N 50°22' W 004°08'0 0.0
2015-Jul-23 22:33N 50°22' W 004°08'1 0.0
2015-Jul-22 05:29N 50°21' W 004°09'24 8.3
2015-Jul-22 02:33N 50°12' W 003°33'10 9.9
2015-Jul-22 01:33N 50°15' W 003°19'9 9.3
2015-Jul-22 00:33N 50°18' W 003°05'9 8.7
2015-Jul-21 23:33N 50°21' W 002°52'38 8.6
2015-Jul-21 19:10N 50°35' W 001°57'4 7.3
2015-Jul-21 18:33N 50°39' W 001°54'5 4.7
2015-Jul-21 17:30N 50°43' W 001°59'0 0.0
2015-Jul-21 16:30N 50°43' W 001°59'0 0.0
2015-Jul-21 15:30N 50°43' W 001°59'0 0.0
2015-Jul-21 14:29N 50°43' W 001°59'0 0.0
2015-Jul-21 13:29N 50°43' W 001°59'0 0.0
2015-Jul-21 12:29N 50°43' W 001°59'0 0.0
2015-Jul-21 11:29N 50°43' W 001°59'0 0.0
2015-Jul-21 10:29N 50°43' W 001°59'0 0.0
2015-Jul-21 09:29N 50°43' W 001°59'0 0.0
2015-Jul-21 08:29N 50°43' W 001°59'0 0.0
2015-Jul-21 07:26N 50°43' W 001°59'0 0.0
2015-Jul-21 06:32N 50°43' W 001°59'0 0.0
2015-Jul-21 05:32N 50°43' W 001°59'0 0.0
2015-Jul-21 04:26N 50°43' W 001°59'0 0.0
2015-Jul-21 03:29N 50°43' W 001°59'0 0.0
2015-Jul-21 02:32N 50°43' W 001°59'0 0.0
2015-Jul-21 01:32N 50°43' W 001°59'0 0.0
2015-Jul-21 00:26N 50°43' W 001°59'0 0.0
2015-Jul-20 22:26N 50°43' W 001°59'0 0.0
2015-Jul-20 21:32N 50°43' W 001°59'0 0.0
2015-Jul-20 20:29N 50°43' W 001°59'0 0.0
2015-Jul-20 19:32N 50°43' W 001°59'0 0.0
2015-Jul-20 18:32N 50°43' W 001°59'0 0.0
2015-Jul-20 17:29N 50°43' W 001°59'0 0.0
2015-Jul-20 16:29N 50°43' W 001°59'0 0.0
2015-Jul-20 15:29N 50°43' W 001°59'0 0.0
2015-Jul-20 14:26N 50°43' W 001°59'0 0.0
2015-Jul-20 13:32N 50°43' W 001°59'0 0.0
2015-Jul-20 12:26N 50°43' W 001°59'0 0.0
2015-Jul-20 11:32N 50°43' W 001°59'0 0.0
2015-Jul-20 10:32N 50°43' W 001°59'0 0.0
2015-Jul-20 09:32N 50°43' W 001°59'0 0.0
2015-Jul-20 08:29N 50°43' W 001°59'0 0.0
2015-Jul-20 07:07N 50°43' W 001°59'0 0.0
2015-Jul-20 06:31N 50°43' W 001°59'0 0.0
2015-Jul-20 00:31N 50°43' W 001°59'  
Track history (hours):
 
Tides and Currents Weather Stations Pressure Air Temp Water Temp Dewpoint Dewpoint Depression Visibility Wind Speed Wind Dir Waves Ship Positions

John_paul K

Last reported at 2015-Jul-29 23:31 UTC. Time now 2015-Jul-30 02:06 UTC.
Position N 35°54' W 005°19'.

Length 90 m; draft 5.8 m.

Type: Cargo ship. MMSI: 245181000.

Date/timePositionNaut miles runAvg speedWind from/ knotsBaromVisibWave heightAir tempDewpointWater temp
2015-Jul-29 23:31N 35°54' W 005°19'0 0.1
2015-Jul-29 22:31N 35°54' W 005°19'0 0.0
2015-Jul-29 21:31N 35°54' W 005°19'1 0.9
2015-Jul-29 20:33N 35°55' W 005°19'149 9.1
2015-Jul-29 04:08N 36°22' W 008°21'6 9.9
2015-Jul-29 03:33N 36°24' W 008°27'24 9.6
2015-Jul-29 01:05N 36°30' W 008°56'17 8.8
2015-Jul-28 23:10N 36°35' W 009°16'6 9.0
2015-Jul-28 22:33N 36°38' W 009°21'9 8.7
2015-Jul-28 21:33N 36°45' W 009°29'26 8.5
2015-Jul-28 18:32N 37°09' W 009°38'9 9.0
2015-Jul-28 17:33N 37°18' W 009°41'29 8.9
2015-Jul-28 14:21N 37°46' W 009°49'810.3
2015-Jul-28 13:33N 37°54' W 009°52'13 9.7
2015-Jul-28 12:10N 38°07' W 009°56'6 9.7
2015-Jul-28 11:33N 38°13' W 009°58'9 9.4
2015-Jul-28 10:33N 38°22' W 009°60'9 9.2
2015-Jul-28 09:33N 38°31' W 010°02'9 9.2
2015-Jul-28 08:33N 38°40' W 010°05'9 9.0
2015-Jul-28 07:32N 38°49' W 010°05'9 9.5
2015-Jul-28 06:33N 38°58' W 010°05'10 9.9
2015-Jul-28 05:33N 39°08' W 010°05'9 9.0
2015-Jul-28 04:33N 39°17' W 010°05'10 9.0
2015-Jul-28 03:30N 39°27' W 010°05'9 9.0
2015-Jul-28 02:32N 39°35' W 010°05'28 9.2
2015-Jul-27 23:32N 40°03' W 010°05'9 8.9
2015-Jul-27 22:33N 40°12' W 010°05'9 9.0
2015-Jul-27 21:33N 40°21' W 010°05'10 9.2
2015-Jul-27 20:28N 40°31' W 010°05'9 9.5
2015-Jul-27 19:33N 40°40' W 010°05'  
2015-Jul-24 18:33N 50°22' W 004°08'1 0.6
2015-Jul-24 17:31N 50°22' W 004°08'0 0.0
2015-Jul-24 16:31N 50°22' W 004°08'0 0.0
2015-Jul-24 15:31N 50°22' W 004°08'0 0.0
2015-Jul-24 14:31N 50°22' W 004°08'0 0.0
2015-Jul-24 13:31N 50°22' W 004°08'0 0.0
2015-Jul-24 12:31N 50°22' W 004°08'0 0.0
2015-Jul-24 11:31N 50°22' W 004°08'0 0.0
2015-Jul-24 10:31N 50°22' W 004°08'0 0.0
2015-Jul-24 09:31N 50°22' W 004°08'0 0.0
2015-Jul-24 08:31N 50°22' W 004°08'0 0.0
2015-Jul-24 07:31N 50°22' W 004°08'0 0.0
2015-Jul-24 06:31N 50°22' W 004°08'0 0.0
2015-Jul-24 05:34N 50°22' W 004°08'0 0.0
2015-Jul-24 04:33N 50°22' W 004°08'0 0.0
2015-Jul-24 03:33N 50°22' W 004°08'0 0.0
2015-Jul-24 02:33N 50°22' W 004°08'0 0.0
2015-Jul-24 01:33N 50°22' W 004°08'0 0.0
2015-Jul-24 00:33N 50°22' W 004°08'0 0.0
2015-Jul-23 23:33N 50°22' W 004°08'0 0.0
2015-Jul-23 22:33N 50°22' W 004°08'1 0.0
2015-Jul-22 05:29N 50°21' W 004°09'24 8.3
2015-Jul-22 02:33N 50°12' W 003°33'10 9.9
2015-Jul-22 01:33N 50°15' W 003°19'9 9.3
2015-Jul-22 00:33N 50°18' W 003°05'9 8.7
2015-Jul-21 23:33N 50°21' W 002°52'38 8.6
2015-Jul-21 19:10N 50°35' W 001°57'4 7.3
2015-Jul-21 18:33N 50°39' W 001°54'5 4.7
2015-Jul-21 17:30N 50°43' W 001°59'0 0.0
2015-Jul-21 16:30N 50°43' W 001°59'0 0.0
2015-Jul-21 15:30N 50°43' W 001°59'0 0.0
2015-Jul-21 14:29N 50°43' W 001°59'0 0.0
2015-Jul-21 13:29N 50°43' W 001°59'0 0.0
2015-Jul-21 12:29N 50°43' W 001°59'0 0.0
2015-Jul-21 11:29N 50°43' W 001°59'0 0.0
2015-Jul-21 10:29N 50°43' W 001°59'0 0.0
2015-Jul-21 09:29N 50°43' W 001°59'0 0.0
2015-Jul-21 08:29N 50°43' W 001°59'0 0.0
2015-Jul-21 07:26N 50°43' W 001°59'0 0.0
2015-Jul-21 06:32N 50°43' W 001°59'0 0.0
2015-Jul-21 05:32N 50°43' W 001°59'0 0.0
2015-Jul-21 04:26N 50°43' W 001°59'0 0.0
2015-Jul-21 03:29N 50°43' W 001°59'0 0.0
2015-Jul-21 02:32N 50°43' W 001°59'0 0.0
2015-Jul-21 01:32N 50°43' W 001°59'0 0.0
2015-Jul-21 00:26N 50°43' W 001°59'0 0.0
2015-Jul-20 22:26N 50°43' W 001°59'0 0.0
2015-Jul-20 21:32N 50°43' W 001°59'0 0.0
2015-Jul-20 20:29N 50°43' W 001°59'0 0.0
2015-Jul-20 19:32N 50°43' W 001°59'0 0.0
2015-Jul-20 18:32N 50°43' W 001°59'0 0.0
2015-Jul-20 17:29N 50°43' W 001°59'0 0.0
2015-Jul-20 16:29N 50°43' W 001°59'0 0.0
2015-Jul-20 15:29N 50°43' W 001°59'0 0.0
2015-Jul-20 14:26N 50°43' W 001°59'0 0.0
2015-Jul-20 13:32N 50°43' W 001°59'0 0.0
2015-Jul-20 12:26N 50°43' W 001°59'0 0.0
2015-Jul-20 11:32N 50°43' W 001°59'0 0.0
2015-Jul-20 10:32N 50°43' W 001°59'0 0.0
2015-Jul-20 09:32N 50°43' W 001°59'0 0.0
2015-Jul-20 08:29N 50°43' W 001°59'0 0.0
2015-Jul-20 07:07N 50°43' W 001°59'0 0.0
2015-Jul-20 06:31N 50°43' W 001°59'0 0.0
2015-Jul-20 00:31N 50°43' W 001°59'  

Dump ship's entire track history